sensor_id;sensor_type;location;lat;lon;timestamp;pressure;altitude;pressure_sealevel;temperature;humidity
7337;BME280;54510;42.016;23.098;2022-11-04T00:01:42;-21554.28;;;15.29;52.73
7337;BME280;54510;42.016;23.098;2022-11-04T00:04:08;-21544.91;;;14.94;53.49
7337;BME280;54510;42.016;23.098;2022-11-04T00:06:35;-21544.91;;;14.94;53.45
7337;BME280;54510;42.016;23.098;2022-11-04T00:09:00;-21550.31;;;15.14;53.10
7337;BME280;54510;42.016;23.098;2022-11-04T00:11:26;-21546.97;;;15.02;53.31
7337;BME280;54510;42.016;23.098;2022-11-04T00:14:12;-21542.00;;;14.84;53.94
7337;BME280;54510;42.016;23.098;2022-11-04T00:16:37;-21554.44;;;15.29;53.03
7337;BME280;54510;42.016;23.098;2022-11-04T00:19:22;-21541.72;;;14.83;53.82
7337;BME280;54510;42.016;23.098;2022-11-04T00:21:48;-21537.31;;;14.67;55.08
7337;BME280;54510;42.016;23.098;2022-11-04T00:24:32;-21546.44;;;15.00;54.24
7337;BME280;54510;42.016;23.098;2022-11-04T00:27:11;-21543.41;;;14.89;54.12
7337;BME280;54510;42.016;23.098;2022-11-04T00:29:55;-21547.13;;;15.02;54.22
7337;BME280;54510;42.016;23.098;2022-11-04T00:32:21;-21547.53;;;15.04;53.99
7337;BME280;54510;42.016;23.098;2022-11-04T00:35:06;-21547.81;;;15.05;53.74
7337;BME280;54510;42.016;23.098;2022-11-04T00:37:35;-21550.97;;;15.17;53.09
7337;BME280;54510;42.016;23.098;2022-11-04T00:40:00;-21549.31;;;15.11;53.06
7337;BME280;54510;42.016;23.098;2022-11-04T00:42:26;-21544.78;;;14.94;53.37
7337;BME280;54510;42.016;23.098;2022-11-04T00:44:51;-21548.38;;;15.07;53.20
7337;BME280;54510;42.016;23.098;2022-11-04T00:47:16;-21547.69;;;15.05;53.30
7337;BME280;54510;42.016;23.098;2022-11-04T00:49:42;-21534.69;;;14.57;54.16
7337;BME280;54510;42.016;23.098;2022-11-04T00:52:07;-21527.78;;;14.32;54.74
7337;BME280;54510;42.016;23.098;2022-11-04T00:54:32;-21535.09;;;14.58;54.35
7337;BME280;54510;42.016;23.098;2022-11-04T00:56:58;-21530.13;;;14.40;54.18
7337;BME280;54510;42.016;23.098;2022-11-04T00:59:23;-21534.97;;;14.58;54.81
7337;BME280;54510;42.016;23.098;2022-11-04T01:01:48;-21538.69;;;14.72;54.24
7337;BME280;54510;42.016;23.098;2022-11-04T01:04:14;-21537.03;;;14.66;54.59
7337;BME280;54510;42.016;23.098;2022-11-04T01:06:39;-21536.06;;;14.62;54.64
7337;BME280;54510;42.016;23.098;2022-11-04T01:09:07;-21532.34;;;14.48;55.24
7337;BME280;54510;42.016;23.098;2022-11-04T01:11:33;-21537.59;;;14.68;54.32
7337;BME280;54510;42.016;23.098;2022-11-04T01:13:59;-21544.22;;;14.92;53.78
7337;BME280;54510;42.016;23.098;2022-11-04T01:16:25;-21540.34;;;14.78;54.30
7337;BME280;54510;42.016;23.098;2022-11-04T01:18:51;-21540.91;;;14.80;53.86
7337;BME280;54510;42.016;23.098;2022-11-04T01:21:17;-21537.72;;;14.68;54.17
7337;BME280;54510;42.016;23.098;2022-11-04T01:23:43;-21535.78;;;14.61;54.66
7337;BME280;54510;42.016;23.098;2022-11-04T01:26:15;-21536.50;;;14.63;54.13
7337;BME280;54510;42.016;23.098;2022-11-04T01:28:41;-21523.91;;;14.17;55.04
7337;BME280;54510;42.016;23.098;2022-11-04T01:31:11;-21533.19;;;14.51;54.54
7337;BME280;54510;42.016;23.098;2022-11-04T01:33:37;-21531.66;;;14.46;54.59
7337;BME280;54510;42.016;23.098;2022-11-04T01:36:04;-21527.09;;;14.29;54.96
7337;BME280;54510;42.016;23.098;2022-11-04T01:38:30;-21523.09;;;14.14;55.30
7337;BME280;54510;42.016;23.098;2022-11-04T01:40:55;-21528.06;;;14.33;54.93
7337;BME280;54510;42.016;23.098;2022-11-04T01:43:22;-21520.59;;;14.05;55.81
7337;BME280;54510;42.016;23.098;2022-11-04T01:45:55;-21518.66;;;13.98;56.21
7337;BME280;54510;42.016;23.098;2022-11-04T01:48:28;-21517.56;;;13.94;56.53
7337;BME280;54510;42.016;23.098;2022-11-04T01:50:55;-21517.56;;;13.94;56.20
7337;BME280;54510;42.016;23.098;2022-11-04T01:53:24;-21517.41;;;13.94;56.42
7337;BME280;54510;42.016;23.098;2022-11-04T01:55:55;-21525.97;;;14.25;55.72
7337;BME280;54510;42.016;23.098;2022-11-04T01:58:23;-21520.03;;;14.03;55.60
7337;BME280;54510;42.016;23.098;2022-11-04T02:00:50;-21520.59;;;14.05;55.99
7337;BME280;54510;42.016;23.098;2022-11-04T02:03:25;-21510.50;;;13.68;56.64
7337;BME280;54510;42.016;23.098;2022-11-04T02:05:53;-21515.63;;;13.87;56.49
7337;BME280;54510;42.016;23.098;2022-11-04T02:08:19;-21515.75;;;13.88;56.09
7337;BME280;54510;42.016;23.098;2022-11-04T02:11:05;-21513.81;;;13.80;56.25
7337;BME280;54510;42.016;23.098;2022-11-04T02:13:33;-21506.34;;;13.53;56.38
7337;BME280;54510;42.016;23.098;2022-11-04T02:28:22;-21509.13;;;13.63;56.27
7337;BME280;54510;42.016;23.098;2022-11-04T02:39:46;-21499.44;;;13.28;57.06
7337;BME280;54510;42.016;23.098;2022-11-04T02:42:15;-21495.84;;;13.15;57.10
7337;BME280;54510;42.016;23.098;2022-11-04T02:44:53;-21495.97;;;13.15;57.01
7337;BME280;54510;42.016;23.098;2022-11-04T02:47:25;-21492.25;;;13.01;57.76
7337;BME280;54510;42.016;23.098;2022-11-04T02:50:13;-21505.25;;;13.49;56.67
7337;BME280;54510;42.016;23.098;2022-11-04T02:52:52;-21496.94;;;13.19;57.04
7337;BME280;54510;42.016;23.098;2022-11-04T02:55:34;-21501.50;;;13.35;57.09
7337;BME280;54510;42.016;23.098;2022-11-04T02:58:04;-21502.47;;;13.39;56.76
7337;BME280;54510;42.016;23.098;2022-11-04T03:00:32;-21495.13;;;13.12;57.54
7337;BME280;54510;42.016;23.098;2022-11-04T03:03:00;-21489.47;;;12.91;58.23
7337;BME280;54510;42.016;23.098;2022-11-04T03:05:34;-21497.50;;;13.21;58.03
7337;BME280;54510;42.016;23.098;2022-11-04T03:08:04;-21504.13;;;13.45;56.84
7337;BME280;54510;42.016;23.098;2022-11-04T03:10:38;-21495.56;;;13.14;57.38
7337;BME280;54510;42.016;23.098;2022-11-04T03:13:12;-21488.78;;;12.89;58.18
7337;BME280;54510;42.016;23.098;2022-11-04T03:15:39;-21488.50;;;12.88;58.69
7337;BME280;54510;42.016;23.098;2022-11-04T03:20:49;-21492.50;;;13.02;58.48
7337;BME280;54510;42.016;23.098;2022-11-04T03:23:16;-21489.59;;;12.92;59.00
7337;BME280;54510;42.016;23.098;2022-11-04T03:25:46;-21493.91;;;13.07;57.92
7337;BME280;54510;42.016;23.098;2022-11-04T03:31:01;-21493.34;;;13.05;58.34
7337;BME280;54510;42.016;23.098;2022-11-04T03:33:39;-21492.78;;;13.03;57.92
7337;BME280;54510;42.016;23.098;2022-11-04T03:36:07;-21493.91;;;13.07;57.76
7337;BME280;54510;42.016;23.098;2022-11-04T03:38:34;-21500.13;;;13.30;57.25
7337;BME280;54510;42.016;23.098;2022-11-04T03:41:01;-21497.78;;;13.22;56.99
7337;BME280;54510;42.016;23.098;2022-11-04T03:43:29;-21501.09;;;13.34;56.97
7337;BME280;54510;42.016;23.098;2022-11-04T03:45:56;-21504.41;;;13.46;56.38
7337;BME280;54510;42.016;23.098;2022-11-04T03:48:22;-21500.41;;;13.31;56.60
7337;BME280;54510;42.016;23.098;2022-11-04T03:50:49;-21498.06;;;13.23;56.70
7337;BME280;54510;42.016;23.098;2022-11-04T03:53:21;-21495.56;;;13.14;56.46
7337;BME280;54510;42.016;23.098;2022-11-04T04:01:35;-21481.31;;;12.61;56.85
7337;BME280;54510;42.016;23.098;2022-11-04T04:06:33;-21484.34;;;12.73;57.65
7337;BME280;54510;42.016;23.098;2022-11-04T04:09:08;-21487.13;;;12.83;57.39
7337;BME280;54510;42.016;23.098;2022-11-04T04:11:57;-21488.22;;;12.87;57.81
7337;BME280;54510;42.016;23.098;2022-11-04T04:14:37;-21480.75;;;12.59;58.45
7337;BME280;54510;42.016;23.098;2022-11-04T04:19:33;-21484.47;;;12.73;58.27
7337;BME280;54510;42.016;23.098;2022-11-04T04:22:16;-21484.75;;;12.74;58.58
7337;BME280;54510;42.016;23.098;2022-11-04T04:24:45;-21481.44;;;12.62;58.97
7337;BME280;54510;42.016;23.098;2022-11-04T04:27:32;-21488.91;;;12.89;58.06
7337;BME280;54510;42.016;23.098;2022-11-04T04:30:05;-21491.13;;;12.97;57.61
7337;BME280;54510;42.016;23.098;2022-11-04T04:32:36;-21491.41;;;12.98;57.07
7337;BME280;54510;42.016;23.098;2022-11-04T04:35:05;-21492.78;;;13.03;57.02
7337;BME280;54510;42.016;23.098;2022-11-04T04:37:51;-21491.13;;;12.97;57.22
7337;BME280;54510;42.016;23.098;2022-11-04T04:40:19;-21493.34;;;13.05;56.77
7337;BME280;54510;42.016;23.098;2022-11-04T04:43:13;-21490.84;;;12.96;56.85
7337;BME280;54510;42.016;23.098;2022-11-04T04:45:58;-21491.41;;;12.98;56.83
7337;BME280;54510;42.016;23.098;2022-11-04T04:48:24;-21486.16;;;12.79;56.42
7337;BME280;54510;42.016;23.098;2022-11-04T04:50:51;-21483.78;;;12.71;56.95
7337;BME280;54510;42.016;23.098;2022-11-04T04:53:21;-21483.25;;;12.69;57.27
7337;BME280;54510;42.016;23.098;2022-11-04T04:55:47;-21478.94;;;12.53;57.74
7337;BME280;54510;42.016;23.098;2022-11-04T04:58:12;-21474.94;;;12.38;58.66
7337;BME280;54510;42.016;23.098;2022-11-04T05:00:38;-21473.97;;;12.35;58.77
7337;BME280;54510;42.016;23.098;2022-11-04T05:03:03;-21480.31;;;12.58;57.80
7337;BME280;54510;42.016;23.098;2022-11-04T05:05:29;-21480.75;;;12.59;57.90
7337;BME280;54510;42.016;23.098;2022-11-04T05:07:54;-21479.63;;;12.55;58.03
7337;BME280;54510;42.016;23.098;2022-11-04T05:10:20;-21484.47;;;12.73;57.55
7337;BME280;54510;42.016;23.098;2022-11-04T05:12:45;-21481.16;;;12.61;57.43
7337;BME280;54510;42.016;23.098;2022-11-04T05:15:30;-21480.88;;;12.60;57.53
7337;BME280;54510;42.016;23.098;2022-11-04T05:17:58;-21488.91;;;12.89;56.76
7337;BME280;54510;42.016;23.098;2022-11-04T05:20:23;-21488.78;;;12.89;56.62
7337;BME280;54510;42.016;23.098;2022-11-04T05:22:49;-21490.03;;;12.93;56.45
7337;BME280;54510;42.016;23.098;2022-11-04T05:25:15;-21492.38;;;13.02;55.98
7337;BME280;54510;42.016;23.098;2022-11-04T05:27:40;-21491.69;;;12.99;55.55
7337;BME280;54510;42.016;23.098;2022-11-04T05:30:06;-21491.97;;;13.00;55.70
7337;BME280;54510;42.016;23.098;2022-11-04T05:32:32;-21489.59;;;12.92;55.91
7337;BME280;54510;42.016;23.098;2022-11-04T05:34:57;-21493.91;;;13.07;55.70
7337;BME280;54510;42.016;23.098;2022-11-04T05:37:24;-21496.53;;;13.17;55.46
7337;BME280;54510;42.016;23.098;2022-11-04T05:39:49;-21495.69;;;13.14;55.40
7337;BME280;54510;42.016;23.098;2022-11-04T05:42:15;-21484.34;;;12.73;56.07
7337;BME280;54510;42.016;23.098;2022-11-04T05:44:40;-21475.91;;;12.42;57.25
7337;BME280;54510;42.016;23.098;2022-11-04T05:47:05;-21484.06;;;12.72;57.17
7337;BME280;54510;42.016;23.098;2022-11-04T05:49:31;-21484.91;;;12.75;56.97
7337;BME280;54510;42.016;23.098;2022-11-04T05:51:57;-21488.22;;;12.87;56.28
7337;BME280;54510;42.016;23.098;2022-11-04T05:54:23;-21491.69;;;12.99;56.12
7337;BME280;54510;42.016;23.098;2022-11-04T05:56:48;-21495.56;;;13.14;55.54
7337;BME280;54510;42.016;23.098;2022-11-04T05:59:14;-21497.34;;;13.20;55.25
7337;BME280;54510;42.016;23.098;2022-11-04T06:01:40;-21497.22;;;13.20;55.59
7337;BME280;54510;42.016;23.098;2022-11-04T06:04:12;-21496.66;;;13.18;55.61
7337;BME280;54510;42.016;23.098;2022-11-04T06:06:38;-21498.06;;;13.23;55.49
7337;BME280;54510;42.016;23.098;2022-11-04T06:09:04;-21492.50;;;13.02;56.25
7337;BME280;54510;42.016;23.098;2022-11-04T06:11:30;-21492.66;;;13.03;56.46
7337;BME280;54510;42.016;23.098;2022-11-04T06:13:56;-21495.28;;;13.13;56.38
7337;BME280;54510;42.016;23.098;2022-11-04T06:16:22;-21491.53;;;12.99;56.69
7337;BME280;54510;42.016;23.098;2022-11-04T06:18:48;-21493.34;;;13.05;56.79
7337;BME280;54510;42.016;23.098;2022-11-04T06:23:40;-21507.47;;;13.57;55.92
7337;BME280;54510;42.016;23.098;2022-11-04T06:26:06;-21507.47;;;13.57;55.63
7337;BME280;54510;42.016;23.098;2022-11-04T06:28:31;-21507.88;;;13.59;55.44
7337;BME280;54510;42.016;23.098;2022-11-04T06:30:59;-21501.94;;;13.37;55.76
7337;BME280;54510;42.016;23.098;2022-11-04T06:33:24;-21503.44;;;13.42;55.79
7337;BME280;54510;42.016;23.098;2022-11-04T06:35:50;-21506.34;;;13.53;55.99
7337;BME280;54510;42.016;23.098;2022-11-04T06:38:15;-21510.63;;;13.69;55.45
7337;BME280;54510;42.016;23.098;2022-11-04T06:40:41;-21508.28;;;13.60;55.56
7337;BME280;54510;42.016;23.098;2022-11-04T06:43:06;-21512.44;;;13.75;54.91
7337;BME280;54510;42.016;23.098;2022-11-04T06:45:32;-21512.16;;;13.74;55.15
7337;BME280;54510;42.016;23.098;2022-11-04T06:47:57;-21512.44;;;13.75;55.20
7337;BME280;54510;42.016;23.098;2022-11-04T06:50:22;-21516.31;;;13.90;55.13
7337;BME280;54510;42.016;23.098;2022-11-04T06:52:48;-21520.03;;;14.03;54.81
7337;BME280;54510;42.016;23.098;2022-11-04T06:55:13;-21521.00;;;14.07;54.78
7337;BME280;54510;42.016;23.098;2022-11-04T06:57:39;-21516.72;;;13.91;54.78
7337;BME280;54510;42.016;23.098;2022-11-04T07:00:05;-21519.34;;;14.01;54.95
7337;BME280;54510;42.016;23.098;2022-11-04T07:02:31;-21520.19;;;14.04;54.36
7337;BME280;54510;42.016;23.098;2022-11-04T07:04:56;-21522.41;;;14.12;54.94
7337;BME280;54510;42.016;23.098;2022-11-04T07:07:22;-21525.44;;;14.23;54.41
7337;BME280;54510;42.016;23.098;2022-11-04T07:09:47;-21530.13;;;14.40;54.30
7337;BME280;54510;42.016;23.098;2022-11-04T07:12:13;-21531.53;;;14.45;54.52
7337;BME280;54510;42.016;23.098;2022-11-04T07:14:38;-21532.34;;;14.48;54.29
7337;BME280;54510;42.016;23.098;2022-11-04T07:17:03;-21527.91;;;14.32;54.56
7337;BME280;54510;42.016;23.098;2022-11-04T07:19:29;-21533.72;;;14.53;53.91
7337;BME280;54510;42.016;23.098;2022-11-04T07:21:54;-21534.97;;;14.58;53.47
7337;BME280;54510;42.016;23.098;2022-11-04T07:24:20;-21536.06;;;14.62;53.66
7337;BME280;54510;42.016;23.098;2022-11-04T07:26:45;-21541.47;;;14.82;53.41
7337;BME280;54510;42.016;23.098;2022-11-04T07:29:10;-21547.81;;;15.05;52.83
7337;BME280;54510;42.016;23.098;2022-11-04T07:31:36;-21553.75;;;15.27;52.35
7337;BME280;54510;42.016;23.098;2022-11-04T07:34:02;-21550.97;;;15.17;52.23
7337;BME280;54510;42.016;23.098;2022-11-04T07:36:28;-21547.53;;;15.04;52.76
7337;BME280;54510;42.016;23.098;2022-11-04T07:38:54;-21551.81;;;15.20;52.63
7337;BME280;54510;42.016;23.098;2022-11-04T07:41:19;-21545.31;;;14.96;53.10
7337;BME280;54510;42.016;23.098;2022-11-04T07:43:49;-21550.31;;;15.14;52.99
7337;BME280;54510;42.016;23.098;2022-11-04T07:46:16;-21557.19;;;15.39;52.38
7337;BME280;54510;42.016;23.098;2022-11-04T07:48:41;-21555.00;;;15.31;52.27
7337;BME280;54510;42.016;23.098;2022-11-04T07:51:09;-21564.25;;;15.65;51.76
7337;BME280;54510;42.016;23.098;2022-11-04T07:53:35;-21566.03;;;15.72;51.75
7337;BME280;54510;42.016;23.098;2022-11-04T07:56:06;-21576.09;;;16.09;50.84
7337;BME280;54510;42.016;23.098;2022-11-04T07:58:32;-21575.41;;;16.06;50.60
7337;BME280;54510;42.016;23.098;2022-11-04T08:01:02;-21583.69;;;16.37;50.04
7337;BME280;54510;42.016;23.098;2022-11-04T08:03:29;-21579.28;;;16.20;50.02
7337;BME280;54510;42.016;23.098;2022-11-04T08:05:58;-21588.09;;;16.53;49.98
7337;BME280;54510;42.016;23.098;2022-11-04T08:08:25;-21585.59;;;16.44;50.03
7337;BME280;54510;42.016;23.098;2022-11-04T08:10:55;-21590.28;;;16.61;49.83
7337;BME280;54510;42.016;23.098;2022-11-04T08:13:21;-21594.00;;;16.75;49.50
7337;BME280;54510;42.016;23.098;2022-11-04T08:15:47;-21596.91;;;16.85;49.30
7337;BME280;54510;42.016;23.098;2022-11-04T08:18:12;-21602.81;;;17.07;48.84
7337;BME280;54510;42.016;23.098;2022-11-04T08:20:38;-21605.31;;;17.16;48.82
7337;BME280;54510;42.016;23.098;2022-11-04T08:23:03;-21608.47;;;17.28;48.67
7337;BME280;54510;42.016;23.098;2022-11-04T08:25:29;-21612.06;;;17.41;48.30
7337;BME280;54510;42.016;23.098;2022-11-04T08:27:54;-21616.19;;;17.56;48.32
7337;BME280;54510;42.016;23.098;2022-11-04T08:30:20;-21617.97;;;17.63;48.31
7337;BME280;54510;42.016;23.098;2022-11-04T08:32:45;-21619.91;;;17.70;48.11
7337;BME280;54510;42.016;23.098;2022-11-04T08:35:10;-21625.81;;;17.92;47.91
7337;BME280;54510;42.016;23.098;2022-11-04T08:37:36;-21625.53;;;17.91;48.00
7337;BME280;54510;42.016;23.098;2022-11-04T08:40:03;-21631.03;;;18.11;47.45
7337;BME280;54510;42.016;23.098;2022-11-04T08:42:29;-21634.06;;;18.22;47.19
7337;BME280;54510;42.016;23.098;2022-11-04T08:44:55;-21644.38;;;18.60;46.63
7337;BME280;54510;42.016;23.098;2022-11-04T08:47:20;-21646.03;;;18.66;46.95
7337;BME280;54510;42.016;23.098;2022-11-04T08:49:46;-21649.72;;;18.80;46.96
7337;BME280;54510;42.016;23.098;2022-11-04T08:52:11;-21657.44;;;19.08;46.93
7337;BME280;54510;42.016;23.098;2022-11-04T08:54:37;-21656.59;;;19.05;46.72
7337;BME280;54510;42.016;23.098;2022-11-04T08:57:03;-21665.78;;;19.39;46.58
7337;BME280;54510;42.016;23.098;2022-11-04T08:59:28;-21669.38;;;19.52;45.94
7337;BME280;54510;42.016;23.098;2022-11-04T09:01:54;-21674.44;;;19.71;45.89
7337;BME280;54510;42.016;23.098;2022-11-04T09:04:19;-21674.44;;;19.71;45.99
7337;BME280;54510;42.016;23.098;2022-11-04T09:06:45;-21679.66;;;19.90;45.67
7337;BME280;54510;42.016;23.098;2022-11-04T09:09:14;-21679.13;;;19.88;45.65
7337;BME280;54510;42.016;23.098;2022-11-04T09:11:41;-21689.66;;;20.27;45.25
7337;BME280;54510;42.016;23.098;2022-11-04T09:14:09;-21700.09;;;20.66;44.40
7337;BME280;54510;42.016;23.098;2022-11-04T09:16:36;-21707.63;;;20.94;43.87
7337;BME280;54510;42.016;23.098;2022-11-04T09:19:02;-21708.44;;;20.97;43.79
7337;BME280;54510;42.016;23.098;2022-11-04T09:21:28;-21716.66;;;21.27;43.28
7337;BME280;54510;42.016;23.098;2022-11-04T09:23:53;-21717.50;;;21.30;43.32
7337;BME280;54510;42.016;23.098;2022-11-04T09:26:20;-21719.53;;;21.38;43.23
7337;BME280;54510;42.016;23.098;2022-11-04T09:28:46;-21729.81;;;21.76;42.84
7337;BME280;54510;42.016;23.098;2022-11-04T09:31:14;-21738.00;;;22.06;42.83
7337;BME280;54510;42.016;23.098;2022-11-04T09:33:40;-21748.00;;;22.43;41.17
7337;BME280;54510;42.016;23.098;2022-11-04T09:36:07;-21747.16;;;22.40;41.49
7337;BME280;54510;42.016;23.098;2022-11-04T09:38:33;-21743.75;;;22.27;41.77
7337;BME280;54510;42.016;23.098;2022-11-04T09:40:59;-21755.22;;;22.70;41.33
7337;BME280;54510;42.016;23.098;2022-11-04T09:43:34;-21766.84;;;23.13;40.77
7337;BME280;54510;42.016;23.098;2022-11-04T09:46:02;-21765.88;;;23.09;40.62
7337;BME280;54510;42.016;23.098;2022-11-04T09:48:34;-21777.63;;;23.53;39.94
7337;BME280;54510;42.016;23.098;2022-11-04T09:51:04;-21788.00;;;23.91;38.24
7337;BME280;54510;42.016;23.098;2022-11-04T09:53:45;-21790.03;;;23.99;37.77
7337;BME280;54510;42.016;23.098;2022-11-04T09:56:19;-21796.47;;;24.23;37.36
7337;BME280;54510;42.016;23.098;2022-11-04T09:58:45;-21800.00;;;24.36;36.87
7337;BME280;54510;42.016;23.098;2022-11-04T10:08:55;-21813.63;;;24.87;35.53
7337;BME280;54510;42.016;23.098;2022-11-04T10:22:33;-21825.34;;;25.30;34.97
7337;BME280;54510;42.016;23.098;2022-11-04T10:27:38;-21827.66;;;25.39;34.78
7337;BME280;54510;42.016;23.098;2022-11-04T10:37:50;-21843.84;;;25.99;33.62
7337;BME280;54510;42.016;23.098;2022-11-04T10:40:26;-21840.44;;;25.86;33.81
7337;BME280;54510;42.016;23.098;2022-11-04T10:42:54;-21840.31;;;25.86;34.13
7337;BME280;54510;42.016;23.098;2022-11-04T10:45:30;-21848.47;;;26.16;33.29
7337;BME280;54510;42.016;23.098;2022-11-04T10:48:03;-21845.75;;;26.06;33.42
7337;BME280;54510;42.016;23.098;2022-11-04T10:50:37;-21847.66;;;26.13;32.84
7337;BME280;54510;42.016;23.098;2022-11-04T10:53:14;-21849.81;;;26.21;32.50
7337;BME280;54510;42.016;23.098;2022-11-04T10:58:20;-21864.75;;;26.77;32.59
7337;BME280;54510;42.016;23.098;2022-11-04T11:00:48;-21858.13;;;26.52;32.30
7337;BME280;54510;42.016;23.098;2022-11-04T11:03:33;-21863.94;;;26.74;32.17
7337;BME280;54510;42.016;23.098;2022-11-04T11:06:14;-21857.44;;;26.50;32.01
7337;BME280;54510;42.016;23.098;2022-11-04T11:08:41;-21862.88;;;26.70;32.04
7337;BME280;54510;42.016;23.098;2022-11-04T11:11:09;-21862.88;;;26.70;32.69
7337;BME280;54510;42.016;23.098;2022-11-04T11:13:40;-21864.50;;;26.76;31.75
7337;BME280;54510;42.016;23.098;2022-11-04T11:16:18;-21874.41;;;27.13;31.31
7337;BME280;54510;42.016;23.098;2022-11-04T11:18:44;-21874.00;;;27.11;31.49
7337;BME280;54510;42.016;23.098;2022-11-04T11:21:12;-21876.16;;;27.20;31.04
7337;BME280;54510;42.016;23.098;2022-11-04T11:23:44;-21874.53;;;27.13;30.90
7337;BME280;54510;42.016;23.098;2022-11-04T11:26:17;-21874.41;;;27.13;31.24
7337;BME280;54510;42.016;23.098;2022-11-04T11:28:52;-21874.28;;;27.12;30.86
7337;BME280;54510;42.016;23.098;2022-11-04T11:31:21;-21872.78;;;27.07;31.31
7337;BME280;54510;42.016;23.098;2022-11-04T11:33:55;-21878.88;;;27.30;30.50
7337;BME280;54510;42.016;23.098;2022-11-04T11:36:32;-21875.09;;;27.16;31.30
7337;BME280;54510;42.016;23.098;2022-11-04T11:41:26;-21884.72;;;27.51;30.09
7337;BME280;54510;42.016;23.098;2022-11-04T11:44:25;-21890.28;;;27.72;30.00
7337;BME280;54510;42.016;23.098;2022-11-04T11:46:57;-21891.38;;;27.76;30.36
7337;BME280;54510;42.016;23.098;2022-11-04T11:49:30;-21884.44;;;27.50;30.07
7337;BME280;54510;42.016;23.098;2022-11-04T12:00:56;-21883.78;;;27.48;29.52
7337;BME280;54510;42.016;23.098;2022-11-04T12:03:30;-21889.47;;;27.69;30.08
7337;BME280;54510;42.016;23.098;2022-11-04T12:09:36;-21896.78;;;27.97;28.86
7337;BME280;54510;42.016;23.098;2022-11-04T12:14:55;-21897.31;;;27.99;28.47
7337;BME280;54510;42.016;23.098;2022-11-04T12:23:23;-21899.78;;;28.08;28.37
7337;BME280;54510;42.016;23.098;2022-11-04T12:51:08;-21896.38;;;27.95;29.61
7337;BME280;54510;42.016;23.098;2022-11-04T12:56:16;-21905.31;;;28.28;29.51
7337;BME280;54510;42.016;23.098;2022-11-04T12:58:58;-21897.06;;;27.98;29.84
7337;BME280;54510;42.016;23.098;2022-11-04T13:04:05;-21897.75;;;28.00;30.28
7337;BME280;54510;42.016;23.098;2022-11-04T13:09:19;-21907.22;;;28.36;30.83
7337;BME280;54510;42.016;23.098;2022-11-04T13:14:19;-21908.44;;;28.40;30.39
7337;BME280;54510;42.016;23.098;2022-11-04T13:16:50;-21910.06;;;28.46;30.45
7337;BME280;54510;42.016;23.098;2022-11-04T13:19:21;-21907.34;;;28.36;31.48
7337;BME280;54510;42.016;23.098;2022-11-04T13:21:48;-21911.56;;;28.52;31.41
7337;BME280;54510;42.016;23.098;2022-11-04T13:24:22;-21911.81;;;28.53;31.35
7337;BME280;54510;42.016;23.098;2022-11-04T13:26:50;-21909.53;;;28.44;31.20
7337;BME280;54510;42.016;23.098;2022-11-04T13:29:17;-21907.34;;;28.36;31.25
7337;BME280;54510;42.016;23.098;2022-11-04T13:32:04;-21888.25;;;27.65;32.22
7337;BME280;54510;42.016;23.098;2022-11-04T13:35:04;-21891.63;;;27.77;32.29
7337;BME280;54510;42.016;23.098;2022-11-04T13:37:42;-21894.75;;;27.89;32.58
7337;BME280;54510;42.016;23.098;2022-11-04T13:40:15;-21886.47;;;27.58;33.18
7337;BME280;54510;42.016;23.098;2022-11-04T13:42:48;-21876.31;;;27.20;33.22
7337;BME280;54510;42.016;23.098;2022-11-04T13:45:17;-21870.88;;;27.00;33.90
7337;BME280;54510;42.016;23.098;2022-11-04T13:47:53;-21875.09;;;27.16;33.96
7337;BME280;54510;42.016;23.098;2022-11-04T13:50:36;-21890.81;;;27.74;32.59
7337;BME280;54510;42.016;23.098;2022-11-04T13:53:08;-21879.97;;;27.34;33.38
7337;BME280;54510;42.016;23.098;2022-11-04T13:55:46;-21877.94;;;27.26;34.10
7337;BME280;54510;42.016;23.098;2022-11-04T13:58:27;-21883.34;;;27.46;33.59
7337;BME280;54510;42.016;23.098;2022-11-04T14:01:12;-21874.41;;;27.13;34.33
7337;BME280;54510;42.016;23.098;2022-11-04T14:03:52;-21875.34;;;27.17;34.19
7337;BME280;54510;42.016;23.098;2022-11-04T14:09:33;-21871.56;;;27.02;34.55
7337;BME280;54510;42.016;23.098;2022-11-04T14:14:51;-21869.94;;;26.96;34.36
7337;BME280;54510;42.016;23.098;2022-11-04T14:25:28;-21860.41;;;26.61;34.37
7337;BME280;54510;42.016;23.098;2022-11-04T14:27:58;-21849.69;;;26.21;35.26
7337;BME280;54510;42.016;23.098;2022-11-04T14:30:45;-21850.09;;;26.22;34.99
7337;BME280;54510;42.016;23.098;2022-11-04T14:35:52;-21857.56;;;26.50;34.37
7337;BME280;54510;42.016;23.098;2022-11-04T14:38:26;-21862.44;;;26.68;34.70
7337;BME280;54510;42.016;23.098;2022-11-04T14:41:20;-21861.78;;;26.66;33.99
7337;BME280;54510;42.016;23.098;2022-11-04T14:43:47;-21852.41;;;26.31;34.58
7337;BME280;54510;42.016;23.098;2022-11-04T14:46:25;-21842.06;;;25.92;35.18
7337;BME280;54510;42.016;23.098;2022-11-04T14:48:56;-21843.28;;;25.97;35.82
7337;BME280;54510;42.016;23.098;2022-11-04T14:51:25;-21846.00;;;26.07;35.46
7337;BME280;54510;42.016;23.098;2022-11-04T14:53:58;-21852.81;;;26.32;35.13
7337;BME280;54510;42.016;23.098;2022-11-04T14:56:26;-21844.50;;;26.02;35.10
7337;BME280;54510;42.016;23.098;2022-11-04T15:01:21;-21838.13;;;25.78;35.83
7337;BME280;54510;42.016;23.098;2022-11-04T15:03:48;-21840.56;;;25.87;35.86
7337;BME280;54510;42.016;23.098;2022-11-04T15:06:22;-21840.31;;;25.86;36.12
7337;BME280;54510;42.016;23.098;2022-11-04T15:08:48;-21836.91;;;25.73;36.38
7337;BME280;54510;42.016;23.098;2022-11-04T15:11:25;-21831.19;;;25.52;36.55
7337;BME280;54510;42.016;23.098;2022-11-04T15:14:20;-21829.69;;;25.46;36.77
7337;BME280;54510;42.016;23.098;2022-11-04T15:16:48;-21830.66;;;25.50;36.93
7337;BME280;54510;42.016;23.098;2022-11-04T15:19:26;-21819.22;;;25.07;37.62
7337;BME280;54510;42.016;23.098;2022-11-04T15:21:53;-21819.34;;;25.08;37.76
7337;BME280;54510;42.016;23.098;2022-11-04T15:24:19;-21818.25;;;25.04;37.82
7337;BME280;54510;42.016;23.098;2022-11-04T15:26:49;-21815.66;;;24.94;38.83
7337;BME280;54510;42.016;23.098;2022-11-04T15:29:16;-21813.63;;;24.87;38.67
7337;BME280;54510;42.016;23.098;2022-11-04T15:31:57;-21821.38;;;25.15;37.76
7337;BME280;54510;42.016;23.098;2022-11-04T15:34:27;-21821.66;;;25.16;37.80